Flight Track Log - Related Links

Times and Time Zones

All times are in EST time to prevent confusion due to time zone crossing. See the EGF3520 flight status page for this flight to view local times or setup timezone preferences in your user account.

Time Position Orientation Groundspeed Altitude Reporting Facility
EST Latitude Longitude Course Direction KTS MPH feet Rate Location/Type
Fri 04:18:57 PM 36.0833 -86.6833 180° South 170 196 2,400  Level Nashville TRACON
Fri 04:19:52 PM 36.0283 -86.6803 177° South 194 223 4,800 2,513 Climbing Memphis Center
Fri 04:20:54 PM 36.0264 -86.5997 92° East 242 278 7,300 2,516 Climbing Memphis Center
Fri 04:21:00 PM 36.2754 -86.2240 39° Northeast  Level Estimated
Fri 04:21:56 PM 36.0564 -86.5111 67° East 270 311 10,000  Level Memphis Center
Fri 04:22:00 PM 36.3253 -86.0722 63° Northeast  Level Estimated
Fri 04:22:58 PM 36.0889 -86.4161 67° East 289 333 12,000  Level Memphis Center
Fri 04:23:00 PM 36.3751 -85.9203 58° Northeast  Level Estimated
Fri 04:24:00 PM 36.1250 -86.3047 68° East 334 384 13,900  Level Memphis Center
Fri 04:25:02 PM 36.1611 -86.1906 69° East 351 404 16,000 1,935 Climbing Memphis Center
Fri 04:26:04 PM 36.2069 -86.0536 67° East 362 417 17,900 1,742 Climbing Memphis Center
Fri 04:27:06 PM 36.2572 -85.9397 61° Northeast 369 425 19,600 1,424 Climbing Memphis Center
Fri 04:28:02 PM 36.3031 -85.8383 61° Northeast 395 455 20,700 1,322 Climbing Indianapolis Center
Fri 04:29:04 PM 36.3619 -85.7136 60° Northeast 415 478 22,200 1,597 Climbing Indianapolis Center
Fri 04:30:06 PM 36.4344 -85.5586 60° Northeast 429 494 24,000 1,597 Climbing Indianapolis Center
Fri 04:31:08 PM 36.4989 -85.4269 59° Northeast 439 505 25,500 1,268 Climbing Indianapolis Center
Fri 04:32:09 PM 36.5611 -85.2914 60° Northeast 448 516 26,600 732 Climbing Indianapolis Center
Fri 04:33:11 PM 36.6261 -85.1494 60° Northeast 467 537 27,000 194 Climbing Indianapolis Center
Fri 04:34:13 PM 36.6750 -84.9861 69° East 497 572 27,000  Level Indianapolis Center
Fri 04:35:15 PM 36.7244 -84.8192 70° East 509 586 27,000  Level Indianapolis Center
Fri 04:36:17 PM 36.7747 -84.6503 70° East 517 595 27,000  Level Indianapolis Center
Fri 04:37:19 PM 36.8306 -84.4683 69° East 520 598 27,000  Level Indianapolis Center
Fri 04:38:20 PM 36.8817 -84.2989 69° East 521 600 27,000  Level Indianapolis Center
Fri 04:39:22 PM 36.9328 -84.1256 70° East 527 606 27,000  Level Indianapolis Center
Fri 04:40:24 PM 36.9922 -83.9272 69° East 523 602 27,000  Level Indianapolis Center
Fri 04:41:26 PM 37.0425 -83.7561 70° East 523 602 27,000  Level Indianapolis Center
Fri 04:42:28 PM 37.0947 -83.5836 69° East 528 608 27,000  Level Indianapolis Center
Fri 04:43:30 PM 37.1442 -83.4103 70° East 525 604 27,000  Level Indianapolis Center
Fri 04:44:32 PM 37.1944 -83.2364 70° East 527 606 27,000  Level Indianapolis Center
Fri 04:45:34 PM 37.2453 -83.0631 70° East 525 604 27,000  Level Indianapolis Center
Fri 04:46:35 PM 37.2942 -82.8881 71° East 523 602 27,000  Level Indianapolis Center
Fri 04:47:37 PM 37.3439 -82.7142 70° East 524 603 27,000  Level Indianapolis Center
Fri 04:48:39 PM 37.4014 -82.5125 70° East 523 602 27,000  Level Indianapolis Center
Fri 04:49:41 PM 37.4506 -82.3400 70° East 521 600 27,000  Level Indianapolis Center
Fri 04:50:43 PM 37.4975 -82.1650 71° East 525 604 27,000  Level Indianapolis Center
Fri 04:51:45 PM 37.5469 -81.9922 70° East 524 603 27,000  Level Indianapolis Center
Fri 04:52:47 PM 37.5936 -81.8197 71° East 520 598 27,000  Level Indianapolis Center
Fri 04:53:49 PM 37.6403 -81.6492 71° East 516 594 27,000  Level Indianapolis Center
Fri 04:54:51 PM 37.6867 -81.4731 72° East 513 590 27,000  Level Indianapolis Center
Fri 04:55:53 PM 37.7406 -81.2722 71° East 515 593 27,000  Level Indianapolis Center
Fri 04:56:55 PM 37.7856 -81.1064 71° East 513 590 27,000  Level Indianapolis Center
Fri 04:57:57 PM 37.8461 -80.9339 66° East 511 588 27,000  Level Indianapolis Center
Fri 04:58:59 PM 37.9033 -80.7731 66° East 506 582 27,000  Level Indianapolis Center
Fri 05:00:01 PM 37.9619 -80.6103 65° Northeast 508 585 27,000  Level Indianapolis Center
Fri 05:01:03 PM 38.0217 -80.4383 66° East 505 581 27,000  Level Indianapolis Center
Fri 05:02:05 PM 38.0747 -80.2869 66° East 504 580 27,000  Level Indianapolis Center
Fri 05:03:07 PM 38.1333 -80.1214 66° East 505 581 27,000  Level Indianapolis Center
Fri 05:04:08 PM 38.1958 -79.9592 64° Northeast 504 580 27,000  Level Washington Center
Fri 05:05:06 PM 38.2586 -79.7778 66° East 498 573 27,000  Level Washington Center
Fri 05:06:06 PM 38.3144 -79.6167 66° East 492 566 27,000  Level Washington Center
Fri 05:07:07 PM 38.3717 -79.4558 66° East 492 566 27,000  Level Washington Center
Fri 05:08:08 PM 38.4247 -79.2942 67° East 492 566 27,000 -857 Level Washington Center
Fri 05:09:06 PM 38.4569 -79.1286 76° East 487 560 25,300 -1,613 Descending Washington Center
Fri 05:10:07 PM 38.4797 -78.9892 78° East 465 535 23,800 -1,377 Descending Washington Center
Fri 05:11:08 PM 38.5053 -78.8206 79° East 444 511 22,500 -1,261 Descending Washington Center
Fri 05:12:06 PM 38.5278 -78.6756 79° East 439 505 21,300 -1,373 Descending Washington Center
Fri 05:13:06 PM 38.5503 -78.5306 79° East 423 487 19,800 -1,488 Descending Washington Center
Fri 05:14:07 PM 38.5744 -78.3853 78° East 417 480 18,300 -1,587 Descending Washington Center
Fri 05:15:07 PM 38.5983 -78.2481 77° East 406 467 16,600 -1,438 Descending Washington Center
Fri 05:16:08 PM 38.6364 -78.1272 68° East 384 442 15,400 -1,339 Descending Washington Center
Fri 05:17:08 PM 38.6767 -78.0064 67° East 370 426 13,900 -1,576 Descending Washington Center
Fri 05:18:06 PM 38.7100 -77.8956 69° East 348 400 12,300 -1,412 Descending Washington Center
Fri 05:19:07 PM 38.7492 -77.8011 62° Northeast 320 368 11,100 -639 Descending Washington Center
Fri 05:20:08 PM 38.8069 -77.7203 47° Northeast 303 349 11,000 -545 Descending Washington Center
Fri 05:21:08 PM 38.8606 -77.6444 48° Northeast 291 335 10,000 -1,389 Descending Washington Center
Fri 05:21:56 PM 38.9000 -77.5833 50° Northeast 283 326 8,500 -1,056 Descending Potomac TRACON
Fri 05:22:56 PM 38.9500 -77.5000 52° Northeast 285 328 8,100 -843 Descending Potomac TRACON
Fri 05:23:57 PM 38.9500 -77.4000 90° East 287 330 6,800 -1,438 Descending Potomac TRACON
Fri 05:24:57 PM 38.9667 -77.3000 78° East 272 313 5,200 -1,700 Descending Potomac TRACON
Fri 05:25:57 PM 38.9667 -77.2000 90° East 260 299 3,400 -1,600 Descending Potomac TRACON
Fri 05:26:57 PM 38.9500 -77.1333 108° East 207 238 2,000 -1,041 Descending Potomac TRACON
Fri 05:27:58 PM 38.9167 -77.1000 142° Southeast 165 190 1,300 -645 Descending Potomac TRACON
Fri 05:28:58 PM 38.8833 -77.0500 131° Southeast 126 145 700 -600 Descending Potomac TRACON

Login

Don't have an account? Register now (free) for customized features, flight alerts, and more!